createdAt,value
2023-04-15T00:03:46.420Z,1.33
2023-04-15T00:08:49.355Z,1.60
2023-04-15T00:13:51.415Z,1.55
2023-04-15T00:18:53.202Z,1.60
2023-04-15T00:23:55.459Z,1.25
2023-04-15T00:28:57.236Z,1.48
2023-04-15T00:33:59.822Z,1.33
2023-04-15T00:39:02.925Z,1.02
2023-04-15T00:44:08.370Z,1.00
2023-04-15T00:49:10.352Z,1.05
2023-04-15T00:54:13.141Z,0.93
2023-04-15T00:59:18.732Z,0.95
2023-04-15T01:04:20.588Z,1.10
2023-04-15T01:09:22.485Z,1.15
2023-04-15T01:14:26.083Z,1.20
2023-04-15T01:19:28.807Z,2.00
2023-04-15T01:24:32.131Z,2.10
2023-04-15T01:29:38.505Z,2.20
2023-04-15T01:34:40.891Z,1.52
2023-04-15T01:39:42.681Z,1.58
2023-04-15T01:44:44.507Z,1.52
2023-04-15T01:49:47.031Z,1.67
2023-04-15T01:54:48.985Z,1.10
2023-04-15T01:59:51.085Z,1.20
2023-04-15T02:04:53.671Z,1.30
2023-04-15T02:09:55.431Z,1.17
2023-04-15T02:14:57.489Z,1.35
2023-04-15T02:19:59.741Z,1.42
2023-04-15T02:25:01.522Z,1.30
2023-04-15T02:30:04.130Z,1.40
2023-04-15T02:35:07.729Z,1.17
2023-04-15T02:40:12.228Z,1.25
2023-04-15T02:45:14.222Z,1.60
2023-04-15T02:50:17.301Z,1.80
2023-04-15T02:55:19.163Z,1.30
2023-04-15T03:00:21.008Z,1.23
2023-04-15T03:05:25.568Z,0.93
2023-04-15T03:10:27.456Z,1.58
2023-04-15T03:15:29.516Z,1.00
2023-04-15T03:20:31.724Z,1.23
2023-04-15T03:25:33.662Z,1.30
2023-04-15T03:30:36.075Z,1.10
2023-04-15T03:35:38.326Z,1.65
2023-04-15T03:40:43.429Z,1.27
2023-04-15T03:45:45.361Z,1.33
2023-04-15T03:50:47.294Z,1.40
2023-04-15T03:55:49.052Z,1.27
2023-04-15T04:00:50.867Z,1.40
2023-04-15T04:05:52.673Z,1.40
2023-04-15T04:10:54.458Z,1.52
2023-04-15T04:15:56.298Z,1.50
2023-04-15T04:20:58.298Z,4.70
2023-04-15T04:26:00.059Z,1.58
2023-04-15T04:31:01.886Z,1.60
2023-04-15T04:36:03.938Z,1.25
2023-04-15T04:41:06.296Z,1.50
2023-04-15T04:46:08.070Z,1.80
2023-04-15T04:51:10.018Z,1.85
2023-04-15T04:56:11.852Z,2.08
2023-04-15T05:01:13.713Z,1.02
2023-04-15T05:06:15.739Z,1.35
2023-04-15T05:11:17.607Z,1.15
2023-04-15T05:16:20.121Z,0.90
2023-04-15T05:21:22.114Z,0.88
2023-04-15T05:26:24.415Z,0.88
2023-04-15T05:31:26.750Z,0.60
2023-04-15T05:36:28.887Z,0.70
2023-04-15T05:41:30.783Z,0.50
2023-04-15T05:46:32.620Z,0.68
2023-04-15T05:51:34.530Z,0.60
2023-04-15T05:56:37.046Z,0.47
2023-04-15T06:01:38.921Z,0.50
2023-04-15T06:06:41.131Z,0.20
2023-04-15T06:11:42.920Z,0.43
2023-04-15T06:16:44.687Z,0.70
2023-04-15T06:21:46.644Z,0.50
2023-04-15T06:26:48.501Z,0.80
2023-04-15T06:31:50.564Z,1.05
2023-04-15T06:36:52.350Z,1.70
2023-04-15T06:41:54.276Z,4.97
2023-04-15T06:46:56.744Z,2.08
2023-04-15T06:51:58.648Z,0.80
2023-04-15T06:57:00.417Z,1.25
2023-04-15T07:02:02.363Z,0.75
2023-04-15T07:07:04.166Z,0.60
2023-04-15T07:12:05.981Z,0.68
2023-04-15T07:17:09.015Z,0.90
2023-04-15T07:22:11.278Z,0.85
2023-04-15T07:27:13.084Z,1.00
2023-04-15T07:32:14.907Z,1.50
2023-04-15T07:37:16.768Z,1.35
2023-04-15T07:42:18.729Z,1.40
2023-04-15T07:47:21.145Z,1.90
2023-04-15T07:52:23.047Z,1.45
2023-04-15T07:57:24.836Z,1.52
2023-04-15T08:02:27.019Z,1.25
2023-04-15T08:07:28.921Z,0.90
2023-04-15T08:12:30.747Z,0.98
2023-04-15T08:17:32.576Z,1.05
2023-04-15T08:22:34.576Z,1.10
2023-04-15T08:27:36.732Z,1.13
2023-04-15T08:32:38.846Z,1.00
2023-04-15T08:37:40.675Z,1.48
2023-04-15T08:42:49.065Z,1.63
2023-04-15T08:47:56.465Z,1.70
2023-04-15T08:53:01.859Z,1.27
2023-04-15T08:58:04.702Z,0.82
2023-04-15T09:03:07.550Z,1.55
2023-04-15T09:08:09.620Z,1.70
2023-04-15T09:13:12.273Z,1.83
2023-04-15T09:18:27.240Z,2.42
2023-04-15T09:23:29.060Z,2.50
2023-04-15T09:28:31.625Z,2.20
2023-04-15T09:33:33.407Z,2.45
2023-04-15T09:38:35.159Z,2.40
2023-04-15T09:43:40.886Z,2.92
2023-04-15T09:48:42.790Z,2.97
2023-04-15T09:53:44.562Z,3.40
2023-04-15T09:58:46.777Z,3.40
2023-04-15T10:03:49.630Z,3.10
2023-04-15T10:08:51.671Z,2.70
2023-04-15T10:13:54.968Z,2.80
2023-04-15T10:18:58.710Z,3.00
2023-04-15T10:24:02.283Z,2.50
2023-04-15T10:29:05.009Z,2.65
2023-04-15T10:34:07.721Z,2.80
2023-04-15T10:39:45.272Z,2.42
2023-04-15T10:44:51.962Z,2.53
2023-04-15T10:50:03.720Z,3.10
2023-04-15T10:55:14.340Z,2.92
2023-04-15T11:00:17.932Z,2.80
2023-04-15T11:05:21.570Z,2.63
2023-04-15T11:10:31.335Z,2.70
2023-04-15T11:15:43.123Z,2.25
2023-04-15T11:20:52.720Z,1.77
2023-04-15T11:25:58.464Z,2.22
2023-04-15T11:31:07.360Z,2.17
2023-04-15T11:36:10.779Z,2.25
2023-04-15T11:41:12.935Z,2.38
2023-04-15T11:46:16.431Z,2.20
2023-04-15T11:51:21.086Z,2.40
2023-04-15T11:56:25.395Z,3.00
2023-04-15T12:01:39.666Z,3.75
2023-04-15T12:06:41.890Z,4.10
2023-04-15T12:11:53.316Z,2.88
2023-04-15T12:17:00.120Z,2.78
2023-04-15T12:22:08.991Z,2.15
2023-04-15T12:27:16.889Z,2.03
2023-04-15T12:32:22.948Z,1.73
2023-04-15T12:37:24.758Z,2.50
2023-04-15T12:42:27.759Z,2.40
2023-04-15T12:47:29.854Z,1.95
2023-04-15T12:52:32.352Z,2.28
2023-04-15T12:57:34.565Z,1.92
2023-04-15T13:02:37.136Z,2.60
2023-04-15T13:07:39.107Z,2.13
2023-04-15T13:12:41.721Z,2.10
2023-04-15T13:17:43.557Z,2.28
2023-04-15T13:22:45.532Z,2.35
2023-04-15T13:27:47.380Z,1.65
2023-04-15T13:32:50.886Z,2.10
2023-04-15T13:37:55.354Z,2.03
2023-04-15T13:42:58.664Z,1.77
2023-04-15T13:48:00.635Z,1.83
2023-04-15T13:53:02.563Z,2.13
2023-04-15T13:58:04.635Z,2.20
2023-04-15T14:03:06.743Z,1.80
2023-04-15T14:08:08.698Z,2.35
2023-04-15T14:13:10.619Z,2.45
2023-04-15T14:18:12.431Z,1.90
2023-04-15T14:23:14.450Z,1.90
2023-04-15T14:28:16.688Z,1.85
2023-04-15T14:33:18.662Z,1.77
2023-04-15T14:38:22.739Z,2.38
2023-04-15T14:43:24.628Z,1.65
2023-04-15T14:48:26.720Z,1.80
2023-04-15T14:53:28.808Z,1.77
2023-04-15T14:58:30.588Z,1.35
2023-04-15T15:03:33.333Z,2.00
2023-04-15T15:08:37.200Z,1.80
2023-04-15T15:13:39.921Z,1.30
2023-04-15T15:18:42.268Z,1.52
2023-04-15T15:23:44.952Z,1.63
2023-04-15T15:28:47.287Z,2.08
2023-04-15T15:33:49.579Z,1.48
2023-04-15T15:38:52.142Z,2.10
2023-04-15T15:43:54.600Z,1.80
2023-04-15T15:48:56.457Z,1.45
2023-04-15T15:53:58.242Z,2.63
2023-04-15T15:59:00.057Z,1.52
2023-04-15T16:04:02.076Z,2.15
2023-04-15T16:09:04.449Z,1.60
2023-04-15T16:14:06.416Z,2.00
2023-04-15T16:19:08.181Z,6.20
2023-04-15T16:24:10.023Z,2.28
2023-04-15T16:29:11.846Z,2.33
2023-04-15T16:34:15.892Z,2.50
2023-04-15T16:39:17.678Z,2.22
2023-04-15T16:44:20.133Z,2.67
2023-04-15T16:49:22.111Z,2.40
2023-04-15T16:54:23.985Z,2.58
2023-04-15T16:59:26.023Z,3.40
2023-04-15T17:04:28.740Z,8.73
2023-04-15T17:09:30.612Z,7.68
2023-04-15T17:14:33.358Z,4.43
2023-04-15T17:19:35.224Z,3.10
2023-04-15T17:24:37.043Z,8.23
2023-04-15T17:29:38.879Z,3.97
2023-04-15T17:34:49.414Z,15.63
2023-04-15T17:39:53.026Z,9.23
2023-04-15T17:44:55.081Z,10.80
2023-04-15T17:49:56.849Z,13.35
2023-04-15T17:54:58.683Z,10.02
2023-04-15T18:00:00.902Z,6.03
2023-04-15T18:05:03.270Z,15.65
2023-04-15T18:10:06.026Z,5.25
2023-04-15T18:15:09.541Z,4.45
2023-04-15T18:20:12.620Z,5.18
2023-04-15T18:25:15.339Z,5.22
2023-04-15T18:30:17.846Z,5.80
2023-04-15T18:35:21.270Z,5.90
2023-04-15T18:40:23.260Z,5.78
2023-04-15T18:45:26.763Z,5.93
2023-04-15T18:50:29.198Z,4.72
2023-04-15T18:55:31.425Z,5.65
2023-04-15T19:00:33.717Z,5.20
2023-04-15T19:05:36.912Z,17.85
2023-04-15T19:10:39.405Z,13.02
2023-04-15T19:15:42.067Z,9.77
2023-04-15T19:20:44.114Z,11.15
2023-04-15T19:25:45.906Z,9.88
2023-04-15T19:30:48.402Z,9.43
2023-04-15T19:35:50.776Z,8.63
2023-04-15T19:40:52.677Z,7.60
2023-04-15T19:45:54.956Z,7.93
2023-04-15T19:50:58.242Z,7.13
2023-04-15T19:56:00.485Z,7.63
2023-04-15T20:01:02.402Z,6.97
2023-04-15T20:06:04.332Z,7.65
2023-04-15T20:11:06.246Z,8.15
2023-04-15T20:16:08.175Z,8.98
2023-04-15T20:21:10.039Z,9.35
2023-04-15T20:26:11.801Z,8.75
2023-04-15T20:31:13.642Z,10.35
2023-04-15T20:36:15.535Z,11.23
2023-04-15T20:41:17.482Z,9.88
2023-04-15T20:46:21.409Z,10.90
2023-04-15T20:51:23.586Z,11.38
2023-04-15T20:56:25.383Z,12.18
2023-04-15T21:01:27.439Z,12.73
2023-04-15T21:06:29.262Z,14.40
2023-04-15T21:11:53.305Z,13.70
2023-04-15T21:16:53.794Z,14.15
2023-04-15T21:21:55.639Z,13.85
2023-04-15T21:26:57.636Z,13.30
2023-04-15T21:31:59.427Z,12.93
2023-04-15T21:37:01.472Z,13.35
2023-04-15T21:42:03.439Z,13.85
2023-04-15T21:47:05.328Z,13.82
2023-04-15T21:52:07.289Z,13.13
2023-04-15T21:57:09.048Z,13.55
2023-04-15T22:02:10.966Z,13.75
2023-04-15T22:07:12.787Z,14.90
2023-04-15T22:12:14.848Z,14.85
2023-04-15T22:17:16.664Z,14.77
2023-04-15T22:22:18.436Z,12.98
2023-04-15T22:27:21.766Z,12.98
2023-04-15T22:32:23.557Z,13.68
2023-04-15T22:37:25.688Z,13.50
2023-04-15T22:42:27.508Z,14.02
2023-04-15T22:47:29.597Z,13.95
2023-04-15T22:52:31.564Z,14.50
2023-04-15T22:57:33.411Z,13.88
2023-04-15T23:02:35.383Z,14.13
2023-04-15T23:07:37.220Z,13.85
2023-04-15T23:12:39.011Z,13.90
2023-04-15T23:17:42.611Z,14.40
2023-04-15T23:22:44.564Z,13.32
2023-04-15T23:27:46.335Z,15.10
2023-04-15T23:32:48.388Z,14.57
2023-04-15T23:37:50.194Z,13.88
2023-04-15T23:42:52.070Z,14.00
2023-04-15T23:47:54.369Z,13.93
2023-04-15T23:52:56.446Z,13.07
2023-04-15T23:57:58.279Z,12.50
